Terminal Aerodrome Forecast
Issued by NWS Albuquerque, NM

Home | Current Version | Previous Version | Text Only | Print | Product List | Glossary On
Versions: 1 2 3 4 5 6 7 8 9 10 11 12 13
000
FTUS45 KABQ 242334
TAFABQ
TAF
KABQ 242334Z 2500/2524 32015G25KT P6SM FEW060
     FM250130 34011KT P6SM SKC
     FM250400 VRB05KT P6SM SKC
     FM252200 20014G24KT P6SM BKN200=

USA.gov is the U.S. government's official web portal to all federal, state and local government web resources and services.